Time;durP1;ratioP1;P1;durP2;ratioP2;P2;SDS_P1;SDS_P2;PMS_P1;PMS_P2;Temp;Humidity;BMP_temperature;BMP_pressure;BME280_temperature;BME280_humidity;BME280_pressure;Samples;Min_cycle;Max_cycle;Signal;HPM_P1;HPM_P2
2022/04/11 00:00:32;;;;;;;16.35;10.80;;;;;;;3.75;79.07;94279.54;1766583;81;21011;-50
2022/04/11 00:03:00;;;;;;;19.40;12.13;;;;;;;3.75;78.75;94283.62;1766194;81;21055;-50
2022/04/11 00:05:28;;;;;;;26.68;14.63;;;;;;;3.75;78.51;94280.11;1765982;81;21424;-50
2022/04/11 00:07:55;;;;;;;15.58;11.05;;;;;;;3.68;78.70;94275.56;1766108;81;20999;-50
2022/04/11 00:10:22;;;;;;;27.37;14.03;;;;;;;3.65;78.87;94283.19;1766128;81;21007;-50
2022/04/11 00:12:51;;;;;;;29.25;15.43;;;;;;;3.61;79.05;94292.01;1766141;81;21030;-50
2022/04/11 00:15:17;;;;;;;24.18;14.33;;;;;;;3.61;79.53;94291.23;1766048;81;20952;-50
2022/04/11 00:17:46;;;;;;;25.45;12.30;;;;;;;3.63;79.30;94294.30;1766072;81;21324;-51
2022/04/11 00:20:14;;;;;;;28.50;15.10;;;;;;;3.66;79.33;94290.16;1765907;81;20996;-50
2022/04/11 00:22:41;;;;;;;26.77;13.65;;;;;;;3.66;79.55;94288.81;1766105;81;21042;-49
2022/04/11 00:25:09;;;;;;;21.70;13.25;;;;;;;3.68;79.62;94290.52;1766155;81;21484;-50
2022/04/11 00:27:38;;;;;;;24.85;14.15;;;;;;;3.70;79.84;94291.48;1766198;81;20987;-50
2022/04/11 00:30:07;;;;;;;19.40;13.32;;;;;;;3.77;79.58;94291.34;1766143;81;21145;-50
2022/04/11 00:32:41;;;;;;;32.35;16.35;;;;;;;3.80;79.45;94285.86;1765963;81;20959;-50
2022/04/11 00:35:09;;;;;;;25.25;13.68;;;;;;;3.81;79.18;94284.67;1766143;81;21007;-50
2022/04/11 00:37:37;;;;;;;14.93;10.80;;;;;;;3.83;78.97;94290.46;1766425;81;21546;-50
2022/04/11 00:40:08;;;;;;;18.73;10.53;;;;;;;3.85;78.78;94294.14;1766021;81;20944;-50
2022/04/11 00:42:35;;;;;;;20.37;12.85;;;;;;;3.86;79.08;94292.34;1766424;81;21048;-49
2022/04/11 00:45:03;;;;;;;13.95;10.98;;;;;;;3.92;79.15;94287.98;1766101;81;21055;-50
2022/04/11 00:47:32;;;;;;;13.10;8.80;;;;;;;3.99;79.06;94285.13;1766220;81;20979;-51
2022/04/11 00:50:06;;;;;;;11.85;8.75;;;;;;;4.02;78.68;94285.65;1766201;80;21095;-50
2022/04/11 00:52:36;;;;;;;15.93;10.08;;;;;;;3.96;78.50;94285.96;1766112;81;21019;-49
2022/04/11 00:55:07;;;;;;;14.78;11.40;;;;;;;3.95;78.80;94293.95;1766740;81;21133;-51
2022/04/11 00:57:35;;;;;;;19.35;12.15;;;;;;;3.99;78.73;94291.92;1766760;81;21468;-48
2022/04/11 01:00:07;;;;;;;15.80;11.78;;;;;;;4.02;78.50;94281.56;1766888;81;20975;-50
2022/04/11 01:02:34;;;;;;;12.85;8.85;;;;;;;4.06;78.26;94289.07;1767014;81;21132;-49
2022/04/11 01:05:04;;;;;;;13.45;8.98;;;;;;;4.06;78.08;94290.42;1739626;81;21027;-50
2022/04/11 01:07:31;;;;;;;14.43;8.50;;;;;;;4.02;77.93;94292.45;1741900;81;21227;-50
2022/04/11 01:10:00;;;;;;;13.22;9.78;;;;;;;3.96;78.29;94292.77;1766638;81;20999;-49
2022/04/11 01:12:27;;;;;;;14.50;10.55;;;;;;;3.97;78.28;94289.44;1766844;81;20968;-50
2022/04/11 01:14:55;;;;;;;19.35;12.93;;;;;;;3.99;78.36;94289.20;1766711;81;20999;-50
2022/04/11 01:17:35;;;;;;;12.28;9.70;;;;;;;4.00;78.03;94300.27;1766846;81;21071;-50
2022/04/11 01:20:13;;;;;;;12.58;9.60;;;;;;;3.94;77.55;94300.58;1766937;81;21134;-50
2022/04/11 01:22:43;;;;;;;17.52;10.30;;;;;;;3.80;77.71;94303.53;1766767;81;21020;-51
2022/04/11 01:25:11;;;;;;;19.37;12.60;;;;;;;3.69;78.00;94304.91;1766667;81;21087;-50
2022/04/11 01:27:40;;;;;;;18.80;12.47;;;;;;;3.64;78.57;94310.21;1766808;81;20971;-50
2022/04/11 01:30:11;;;;;;;16.17;11.00;;;;;;;3.66;78.63;94299.69;1741021;81;20972;-50
2022/04/11 01:32:40;;;;;;;24.20;15.43;;;;;;;3.60;78.32;94305.43;1766742;81;21780;-49
2022/04/11 01:35:22;;;;;;;17.73;13.78;;;;;;;3.48;78.40;94311.44;1766702;81;20928;-48
2022/04/11 01:37:49;;;;;;;;;;;;;;;3.42;78.64;94303.41;1769328;81;20999;-51
2022/04/11 01:40:18;;;;;;;20.25;14.35;;;;;;;3.41;79.09;94311.38;1766691;81;20163;-51
2022/04/11 01:42:45;;;;;;;21.73;13.32;;;;;;;3.43;79.18;94303.58;1766830;81;21019;-50
2022/04/11 01:45:14;;;;;;;21.35;13.45;;;;;;;3.42;79.13;94315.64;1766671;81;21321;-49
2022/04/11 01:47:42;;;;;;;31.57;15.70;;;;;;;3.37;79.22;94307.34;1766696;81;21495;-49
2022/04/11 01:50:10;;;;;;;24.55;16.23;;;;;;;3.33;79.30;94305.86;1766758;81;20963;-50
2022/04/11 01:52:37;;;;;;;17.20;12.25;;;;;;;3.30;79.17;94312.91;1766352;81;21510;-49
2022/04/11 01:55:06;;;;;;;18.82;12.30;;;;;;;3.28;79.16;94311.16;1766116;81;21011;-50
2022/04/11 01:57:34;;;;;;;16.42;11.35;;;;;;;3.26;79.35;94306.73;1766241;81;21131;-49
2022/04/11 02:00:01;;;;;;;17.90;12.45;;;;;;;3.29;79.47;94305.94;1766107;81;21012;-50
2022/04/11 02:02:28;;;;;;;14.90;11.50;;;;;;;3.28;79.59;94306.33;1766231;81;20947;-50
2022/04/11 02:04:55;;;;;;;15.78;10.23;;;;;;;3.27;79.48;94310.23;1766150;81;21046;-50
2022/04/11 02:07:23;;;;;;;16.17;12.40;;;;;;;3.21;79.58;94310.52;1766154;81;21070;-49
2022/04/11 02:09:50;;;;;;;13.10;10.03;;;;;;;3.20;79.96;94319.25;1766125;81;21151;-49
2022/04/11 02:12:17;;;;;;;15.68;9.68;;;;;;;3.23;79.91;94316.31;1766074;81;20928;-49
2022/04/11 02:14:44;;;;;;;15.80;12.53;;;;;;;3.23;79.59;94318.42;1766122;81;21035;-50
2022/04/11 02:17:11;;;;;;;18.48;12.20;;;;;;;3.24;79.70;94318.61;1766070;81;21042;-49
2022/04/11 02:19:38;;;;;;;36.10;18.25;;;;;;;3.24;79.71;94326.00;1766136;81;20979;-49
2022/04/11 02:22:05;;;;;;;44.08;22.65;;;;;;;3.23;79.78;94321.75;1766114;81;21248;-49
2022/04/11 02:24:35;;;;;;;26.90;15.30;;;;;;;3.22;79.79;94322.33;1766218;81;21055;-49
2022/04/11 02:27:04;;;;;;;24.85;13.75;;;;;;;3.25;79.72;94320.14;1766200;81;21059;-50
2022/04/11 02:29:31;;;;;;;21.62;12.30;;;;;;;3.25;79.58;94326.18;1766124;81;21034;-49
2022/04/11 02:32:00;;;;;;;26.82;13.13;;;;;;;3.28;79.49;94324.00;1766118;81;20963;-50
2022/04/11 02:34:26;;;;;;;21.65;12.18;;;;;;;3.36;79.55;94318.62;1766472;81;22023;-49
2022/04/11 02:36:54;;;;;;;15.83;11.08;;;;;;;3.42;79.52;94323.80;1766066;81;21061;-49
2022/04/11 02:39:21;;;;;;;18.17;11.15;;;;;;;3.44;79.26;94322.79;1766139;81;21105;-50
2022/04/11 02:41:50;;;;;;;23.15;14.33;;;;;;;3.43;79.29;94329.41;1738291;81;21439;-49
2022/04/11 02:44:18;;;;;;;25.50;14.80;;;;;;;3.41;79.22;94328.45;1766075;81;20979;-49
2022/04/11 02:46:45;;;;;;;21.60;13.68;;;;;;;3.43;79.26;94332.88;1766302;81;21857;-50
2022/04/11 02:49:12;;;;;;;17.50;11.97;;;;;;;3.46;79.19;94334.02;1765996;81;21008;-50
2022/04/11 02:51:41;;;;;;;16.95;10.90;;;;;;;3.48;79.07;94338.45;1764832;81;21106;-49
2022/04/11 02:54:10;;;;;;;17.60;11.60;;;;;;;3.45;79.10;94340.64;1765997;81;21432;-50
2022/04/11 02:56:39;;;;;;;14.23;9.93;;;;;;;3.42;79.28;94335.42;1766142;81;21446;-49
2022/04/11 02:59:07;;;;;;;12.55;10.60;;;;;;;3.44;79.26;94340.46;1766614;81;21159;-50
2022/04/11 03:01:34;;;;;;;13.58;9.88;;;;;;;3.42;79.08;94337.38;1766137;81;20998;-50
2022/04/11 03:04:02;;;;;;;15.23;9.60;;;;;;;3.38;78.84;94347.55;1766177;81;21506;-50
2022/04/11 03:06:31;;;;;;;11.93;8.13;;;;;;;3.32;78.87;94347.81;1763568;81;21094;-50
2022/04/11 03:08:58;;;;;;;16.20;8.98;;;;;;;3.32;78.89;94347.81;1766085;81;20964;-49
2022/04/11 03:11:28;;;;;;;17.37;11.00;;;;;;;3.33;79.21;94342.55;1765992;81;21282;-51
2022/04/11 03:13:56;;;;;;;15.50;10.98;;;;;;;3.39;79.13;94346.37;1766115;81;20991;-50
2022/04/11 03:16:25;;;;;;;20.50;12.55;;;;;;;3.38;78.96;94354.34;1766302;81;20987;-50
2022/04/11 03:18:52;;;;;;;24.37;15.45;;;;;;;3.31;78.86;94355.79;1766094;81;21011;-50
2022/04/11 03:21:19;;;;;;;29.30;18.80;;;;;;;3.26;78.89;94357.02;1766074;81;20956;-50
2022/04/11 03:23:48;;;;;;;24.25;16.65;;;;;;;3.21;78.85;94362.91;1765483;81;21176;-50
2022/04/11 03:26:17;;;;;;;44.53;26.77;;;;;;;3.18;78.93;94363.73;1765964;81;21022;-51
2022/04/11 03:28:45;;;;;;;31.68;19.45;;;;;;;3.21;79.21;94363.52;1766200;81;21015;-51
2022/04/11 03:31:12;;;;;;;28.50;16.32;;;;;;;3.27;79.64;94372.14;1766186;81;21006;-50
2022/04/11 03:33:39;;;;;;;26.75;16.85;;;;;;;3.37;79.75;94372.59;1766288;81;21439;-50
2022/04/11 03:36:06;;;;;;;22.32;14.68;;;;;;;3.44;79.29;94376.55;1766118;81;21189;-50
2022/04/11 03:38:33;;;;;;;20.32;12.45;;;;;;;3.46;79.07;94374.20;1766027;81;20983;-50
2022/04/11 03:41:01;;;;;;;18.82;12.15;;;;;;;3.43;78.76;94381.06;1766031;81;21022;-51
2022/04/11 03:43:28;;;;;;;64.82;40.90;;;;;;;3.40;78.61;94383.25;1766084;81;20975;-50
2022/04/11 03:45:54;;;;;;;54.93;34.95;;;;;;;3.33;78.59;94375.17;1766099;81;21011;-50
2022/04/11 03:48:22;;;;;;;29.60;19.85;;;;;;;3.29;78.92;94374.46;1766018;81;21180;-51
2022/04/11 03:50:50;;;;;;;42.03;32.13;;;;;;;3.30;79.26;94376.00;1765990;81;20940;-49
2022/04/11 03:53:18;;;;;;;37.93;27.60;;;;;;;3.35;79.30;94389.13;1766285;81;21050;-49
2022/04/11 03:55:47;;;;;;;39.08;23.57;;;;;;;3.35;79.20;94377.67;1766418;81;21003;-49
2022/04/11 03:58:17;;;;;;;23.05;16.07;;;;;;;3.37;79.21;94382.11;1766725;81;20951;-49
2022/04/11 04:00:45;;;;;;;22.50;14.60;;;;;;;3.43;79.36;94394.66;1766741;81;21164;-50
2022/04/11 04:03:14;;;;;;;19.48;13.30;;;;;;;3.52;79.44;94393.72;1761748;81;20999;-50
2022/04/11 04:05:49;;;;;;;32.13;18.55;;;;;;;3.63;79.38;94398.42;1766369;81;21082;-50
2022/04/11 04:08:19;;;;;;;29.40;18.98;;;;;;;3.72;79.04;94403.34;1766611;81;20956;-50
2022/04/11 04:10:58;;;;;;;45.60;26.17;;;;;;;3.80;78.69;94402.05;1766568;81;21480;-49
2022/04/11 04:13:27;;;;;;;29.20;19.40;;;;;;;3.85;78.04;94407.80;1766665;81;21472;-50
2022/04/11 04:15:55;;;;;;;29.37;19.82;;;;;;;3.84;77.57;94415.03;1766615;81;20955;-50
2022/04/11 04:18:24;;;;;;;24.50;16.02;;;;;;;3.81;77.67;94415.25;1766637;81;21428;-49
2022/04/11 04:20:51;;;;;;;28.25;14.53;;;;;;;3.82;77.85;94411.34;1766722;81;21140;-50
2022/04/11 04:23:18;;;;;;;33.35;20.80;;;;;;;3.89;77.71;94412.58;1766982;81;21424;-49
2022/04/11 04:25:46;;;;;;;55.33;29.20;;;;;;;3.91;77.13;94421.10;1741090;81;21230;-49
2022/04/11 04:28:17;;;;;;;59.88;32.88;;;;;;;3.91;77.10;94423.07;1766844;81;21463;-50
2022/04/11 04:30:45;;;;;;;48.08;26.93;;;;;;;3.91;77.06;94420.34;1766753;81;21007;-50
2022/04/11 04:33:15;;;;;;;31.30;19.23;;;;;;;3.89;77.06;94424.83;1766765;81;20983;-50
2022/04/11 04:35:43;;;;;;;21.15;15.05;;;;;;;3.84;77.14;94421.22;1766819;81;21519;-51
2022/04/11 04:38:10;;;;;;;18.95;15.05;;;;;;;3.80;77.12;94432.75;1766754;81;21296;-51
2022/04/11 04:40:39;;;;;;;23.12;16.80;;;;;;;3.74;77.00;94431.69;1765529;81;20965;-50
2022/04/11 04:43:08;;;;;;;29.75;19.67;;;;;;;3.73;77.09;94436.92;1766722;81;20975;-51
2022/04/11 04:45:36;;;;;;;24.07;16.05;;;;;;;3.78;77.37;94440.56;1766970;81;21458;-51
2022/04/11 04:48:21;;;;;;;22.52;14.70;;;;;;;3.85;77.28;94439.69;1765149;81;21046;-49
2022/04/11 04:50:47;;;;;;;21.20;13.70;;;;;;;3.88;77.05;94442.94;1766766;81;21180;-50
2022/04/11 04:53:16;;;;;;;20.35;12.98;;;;;;;3.82;77.18;94442.63;1766636;81;20963;-50
2022/04/11 04:55:43;;;;;;;24.37;16.97;;;;;;;3.82;77.44;94452.16;1765492;81;21037;-51
2022/04/11 04:58:10;;;;;;;27.62;17.62;;;;;;;3.82;77.36;94450.79;1766173;81;20986;-57
2022/04/11 05:00:37;;;;;;;33.98;19.00;;;;;;;3.83;77.48;94455.66;1766120;81;21002;-51
2022/04/11 05:03:06;;;;;;;26.12;18.20;;;;;;;3.83;77.43;94456.41;1766137;81;21254;-52
2022/04/11 05:05:35;;;;;;;25.80;18.32;;;;;;;3.85;77.48;94463.56;1766160;81;21002;-51
2022/04/11 05:08:03;;;;;;;32.25;20.40;;;;;;;3.85;77.53;94464.93;1765926;81;21061;-54
2022/04/11 05:10:34;;;;;;;36.30;23.52;;;;;;;3.83;77.54;94464.57;1766094;81;21038;-52
2022/04/11 05:13:02;;;;;;;34.90;23.70;;;;;;;3.80;77.58;94470.84;1766330;81;20994;-54
2022/04/11 05:15:29;;;;;;;37.50;24.70;;;;;;;3.78;77.90;94475.92;1766022;81;21159;-58
2022/04/11 05:17:59;;;;;;;50.12;30.35;;;;;;;3.83;78.23;94467.30;1765243;81;21097;-58
2022/04/11 05:20:27;;;;;;;49.70;29.02;;;;;;;3.89;78.20;94481.21;1764178;80;21046;-59
2022/04/11 05:22:56;;;;;;;39.13;27.05;;;;;;;3.95;78.35;94480.92;1767528;80;21526;-54
2022/04/11 05:25:25;;;;;;;33.45;22.02;;;;;;;4.02;78.31;94484.30;1754286;80;21021;-55
2022/04/11 05:27:53;;;;;;;61.50;39.85;;;;;;;4.07;78.40;94486.55;1760521;81;21142;-52
2022/04/11 05:30:20;;;;;;;47.95;30.97;;;;;;;4.13;78.29;94483.56;1765482;80;20962;-53
2022/04/11 05:32:48;;;;;;;64.00;37.30;;;;;;;4.20;78.20;94482.70;1769033;80;21529;-52
2022/04/11 05:35:16;;;;;;;62.93;37.10;;;;;;;4.19;77.91;94483.84;1732958;82;21104;-52
2022/04/11 05:37:46;;;;;;;61.65;35.73;;;;;;;4.19;77.96;94492.80;1737686;81;21017;-53
2022/04/11 05:40:14;;;;;;;52.15;34.65;;;;;;;4.18;77.67;94477.65;1762448;81;21566;-53
2022/04/11 05:42:41;;;;;;;60.92;36.23;;;;;;;4.20;77.59;94484.81;1742701;80;21022;-54
2022/04/11 05:45:08;;;;;;;70.20;39.67;;;;;;;4.25;77.57;94490.39;1744286;80;20987;-52
2022/04/11 05:47:37;;;;;;;58.83;38.17;;;;;;;4.32;77.84;94487.54;1777975;79;20982;-52
2022/04/11 05:50:06;;;;;;;69.37;41.20;;;;;;;4.35;77.55;94484.77;1756824;80;21005;-51
2022/04/11 05:52:33;;;;;;;61.73;40.05;;;;;;;4.34;77.56;94483.23;1750150;80;22065;-55
2022/04/11 05:55:01;;;;;;;81.95;52.53;;;;;;;4.37;77.77;94481.03;1746287;80;20986;-57
2022/04/11 05:57:28;;;;;;;83.97;53.73;;;;;;;4.38;77.63;94490.75;1740510;80;21167;-51
2022/04/11 05:59:56;;;;;;;49.90;32.30;;;;;;;4.37;77.57;94483.77;1772270;79;21083;-52
2022/04/11 06:02:23;;;;;;;53.68;37.03;;;;;;;4.39;77.24;94485.48;1771957;79;21007;-51
2022/04/11 06:04:51;;;;;;;55.52;38.42;;;;;;;4.38;76.90;94479.85;1746038;81;21012;-52
2022/04/11 06:07:20;;;;;;;55.85;36.35;;;;;;;4.31;76.86;94478.62;1723999;81;21449;-51
2022/04/11 06:09:49;;;;;;;53.75;34.83;;;;;;;4.31;77.05;94477.25;1739467;80;21506;-57
2022/04/11 06:12:17;;;;;;;44.15;29.57;;;;;;;4.32;77.10;94469.84;1741921;80;21044;-56
2022/04/11 06:14:46;;;;;;;39.45;26.62;;;;;;;4.35;77.03;94472.52;1723045;81;20993;-54
2022/04/11 06:17:15;;;;;;;32.53;23.22;;;;;;;4.34;76.81;94477.00;1755457;79;21154;-59
2022/04/11 06:19:42;;;;;;;53.92;32.53;;;;;;;4.31;76.77;94477.83;1752817;79;21572;-53
2022/04/11 06:22:12;;;;;;;54.23;34.45;;;;;;;4.20;76.58;94478.00;1743276;79;21009;-51
2022/04/11 06:24:40;;;;;;;57.23;37.55;;;;;;;4.11;76.92;94484.58;1753243;79;21136;-54
2022/04/11 06:27:07;;;;;;;53.83;33.98;;;;;;;4.09;77.24;94482.83;1762520;79;21065;-53
2022/04/11 06:29:34;;;;;;;62.15;40.00;;;;;;;4.11;77.31;94479.13;1763406;78;22371;-53
2022/04/11 06:32:04;;;;;;;55.03;35.60;;;;;;;4.20;77.39;94475.89;1755654;79;21068;-52
2022/04/11 06:34:36;;;;;;;54.70;34.50;;;;;;;4.30;77.55;94470.27;1749792;79;21056;-53
2022/04/11 06:37:04;;;;;;;54.88;32.25;;;;;;;4.49;77.53;94471.50;1760941;79;21107;-52
2022/04/11 06:39:31;;;;;;;35.03;22.37;;;;;;;4.69;77.09;94469.02;1755107;79;21048;-54
2022/04/11 06:42:00;;;;;;;23.67;17.77;;;;;;;4.85;76.44;94470.48;1762978;79;21090;-53
2022/04/11 06:44:27;;;;;;;22.75;16.82;;;;;;;4.99;75.64;94465.36;1761999;79;21042;-53
2022/04/11 06:46:59;;;;;;;26.77;18.67;;;;;;;5.04;74.71;94468.37;1755978;79;21040;-50
2022/04/11 06:49:26;;;;;;;28.77;19.90;;;;;;;5.16;74.06;94467.73;1751981;79;21018;-52
2022/04/11 06:51:54;;;;;;;29.10;19.48;;;;;;;5.22;73.39;94470.17;1759091;79;21056;-54
2022/04/11 06:54:22;;;;;;;25.20;19.12;;;;;;;5.23;72.93;94465.64;1761358;80;21177;-53
2022/04/11 06:56:49;;;;;;;23.07;17.82;;;;;;;5.24;72.52;94467.18;1770261;80;21046;-53
2022/04/11 06:59:17;;;;;;;21.62;16.23;;;;;;;5.17;71.86;94473.36;1778529;79;20961;-54
2022/04/11 07:01:44;;;;;;;19.45;14.45;;;;;;;5.06;71.63;94476.91;1775506;78;21065;-51
2022/04/11 07:04:12;;;;;;;21.27;15.53;;;;;;;5.05;71.66;94471.86;1773305;78;21088;-52
2022/04/11 07:06:38;;;;;;;15.98;12.73;;;;;;;5.11;71.69;94476.41;1783398;78;21240;-55
2022/04/11 07:09:07;;;;;;;23.45;16.67;;;;;;;5.29;71.48;94476.84;1760329;79;21001;-58
2022/04/11 07:11:34;;;;;;;18.60;13.60;;;;;;;5.60;71.17;94480.89;1776700;78;21066;-54
2022/04/11 07:14:01;;;;;;;26.97;17.50;;;;;;;5.97;70.78;94483.23;1775130;78;21013;-54
2022/04/11 07:16:28;;;;;;;24.50;17.37;;;;;;;6.12;69.25;94481.73;1776135;78;21006;-53
2022/04/11 07:18:55;;;;;;;24.63;17.37;;;;;;;6.19;69.04;94484.28;1775072;78;21151;-55
2022/04/11 07:21:22;;;;;;;24.50;16.40;;;;;;;6.23;68.19;94484.97;1774605;79;21156;-60
2022/04/11 07:23:50;;;;;;;26.77;17.37;;;;;;;6.27;67.54;94491.11;1770950;78;21040;-53
2022/04/11 07:26:19;;;;;;;23.05;17.00;;;;;;;6.31;67.61;94493.94;1772291;80;21013;-59
2022/04/11 07:28:47;;;;;;;33.13;21.77;;;;;;;6.30;67.23;94491.03;1776735;78;21014;-53
2022/04/11 07:31:18;;;;;;;20.20;15.20;;;;;;;6.23;67.53;94485.75;1771489;80;22058;-56
2022/04/11 07:33:47;;;;;;;14.55;10.88;;;;;;;6.33;66.04;94492.91;1769586;78;21036;-52
2022/04/11 07:36:14;;;;;;;27.70;18.48;;;;;;;6.46;63.19;94492.41;1769220;79;21068;-52
2022/04/11 07:38:41;;;;;;;11.83;8.93;;;;;;;6.52;61.69;94496.16;1766227;78;21540;-56
2022/04/11 07:41:09;;;;;;;30.10;20.60;;;;;;;6.56;60.98;94503.67;1759135;79;20986;-52
2022/04/11 07:43:36;;;;;;;91.25;62.17;;;;;;;6.65;59.54;94503.07;1762860;80;21156;-53
2022/04/11 07:46:05;;;;;;;14.43;12.00;;;;;;;6.70;56.32;94504.70;1778569;78;21044;-55
2022/04/11 07:48:33;;;;;;;13.68;11.57;;;;;;;6.65;56.19;94509.32;1768371;78;21025;-54
2022/04/11 07:51:01;;;;;;;14.63;11.00;;;;;;;6.61;57.83;94509.23;1780748;78;20982;-54
2022/04/11 07:53:28;;;;;;;14.35;10.32;;;;;;;6.40;58.90;94511.89;1767120;79;21081;-53
2022/04/11 07:55:55;;;;;;;10.78;8.45;;;;;;;6.20;60.26;94510.40;1746211;78;21112;-54
2022/04/11 07:58:22;;;;;;;10.13;8.93;;;;;;;6.10;60.95;94516.27;1771004;79;21053;-52
2022/04/11 08:00:54;;;;;;;19.35;11.38;;;;;;;6.00;61.56;94509.68;1764928;78;21062;-56
2022/04/11 08:03:22;;;;;;;50.10;34.05;;;;;;;6.00;61.83;94515.89;1738830;78;21214;-55
2022/04/11 08:05:53;;;;;;;11.18;9.25;;;;;;;6.09;60.76;94512.59;1778789;79;21074;-55
2022/04/11 08:08:20;;;;;;;10.03;7.65;;;;;;;6.20;61.07;94507.66;1763133;80;21711;-55
2022/04/11 08:10:49;;;;;;;15.70;9.10;;;;;;;6.37;61.49;94514.69;1765272;80;21107;-60
2022/04/11 08:13:16;;;;;;;12.50;10.00;;;;;;;6.58;60.05;94505.98;1749564;81;21024;-55
2022/04/11 08:15:43;;;;;;;10.13;8.60;;;;;;;6.78;58.94;94510.17;1774662;79;21497;-55
2022/04/11 08:18:11;;;;;;;57.35;39.73;;;;;;;6.96;58.14;94509.14;1772037;79;21044;-54
2022/04/11 08:20:38;;;;;;;17.30;15.45;;;;;;;7.08;57.19;94511.77;1727122;81;21274;-54
2022/04/11 08:23:06;;;;;;;10.50;9.23;;;;;;;7.25;53.74;94509.34;1710423;81;20953;-54
2022/04/11 08:25:33;;;;;;;7.97;7.28;;;;;;;7.45;52.03;94507.81;1752936;79;21029;-54
2022/04/11 08:28:01;;;;;;;7.72;5.92;;;;;;;7.53;52.07;94520.87;1753830;79;21041;-55
2022/04/11 08:30:28;;;;;;;7.83;6.37;;;;;;;7.61;50.73;94518.13;1725191;79;21068;-54
2022/04/11 08:32:56;;;;;;;13.32;6.65;;;;;;;7.55;49.98;94517.70;1760429;79;21061;-54
2022/04/11 08:35:23;;;;;;;8.20;6.60;;;;;;;7.46;50.02;94515.60;1731836;81;21020;-54
2022/04/11 08:37:52;;;;;;;10.53;9.03;;;;;;;7.38;50.33;94512.12;1704738;80;21118;-54
2022/04/11 08:40:21;;;;;;;7.97;6.40;;;;;;;7.37;51.80;94507.84;1761101;79;21000;-57
2022/04/11 08:42:49;;;;;;;7.00;6.28;;;;;;;7.31;52.13;94507.59;1737701;80;21062;-55
2022/04/11 08:45:20;;;;;;;6.87;6.08;;;;;;;7.30;52.60;94509.41;1753520;79;21151;-54
2022/04/11 08:47:48;;;;;;;11.57;6.60;;;;;;;7.40;53.26;94511.08;1762372;79;21066;-55
2022/04/11 08:50:15;;;;;;;8.20;6.58;;;;;;;7.54;52.06;94499.13;1722019;81;21123;-55
2022/04/11 08:52:43;;;;;;;6.72;5.08;;;;;;;7.79;53.59;94494.33;1750371;79;21068;-55
2022/04/11 08:55:11;;;;;;;8.83;5.75;;;;;;;8.02;51.14;94497.56;1731462;80;21084;-57
2022/04/11 08:57:39;;;;;;;7.75;5.42;;;;;;;8.10;48.76;94496.13;1735351;80;21946;-55
2022/04/11 09:00:13;;;;;;;8.40;5.03;;;;;;;8.09;48.95;94500.69;1746190;80;20978;-54
2022/04/11 09:02:43;;;;;;;7.97;5.75;;;;;;;8.09;48.33;94485.63;1740407;81;21031;-58
2022/04/11 09:05:11;;;;;;;13.93;5.50;;;;;;;8.21;48.48;94489.77;1752773;80;21821;-57
2022/04/11 09:07:51;;;;;;;11.50;5.70;;;;;;;8.44;47.49;94494.91;1743593;80;20992;-56
2022/04/11 09:10:25;;;;;;;20.82;11.50;;;;;;;8.60;45.67;94496.17;1742688;80;21103;-55
2022/04/11 09:12:57;;;;;;;15.48;9.83;;;;;;;8.58;47.98;94495.84;1758998;79;21005;-55
2022/04/11 09:15:25;;;;;;;32.33;9.27;;;;;;;8.58;46.80;94497.84;1752488;79;21591;-58
2022/04/11 09:17:54;;;;;;;7.15;5.25;;;;;;;8.57;45.41;94488.83;1750084;80;21688;-57
2022/04/11 09:20:27;;;;;;;28.38;9.70;;;;;;;8.60;45.39;94502.27;1756677;81;21064;-52
2022/04/11 09:22:56;;;;;;;15.83;8.43;;;;;;;8.58;44.79;94497.22;1737600;81;21078;-55
2022/04/11 09:25:30;;;;;;;5.33;4.50;;;;;;;8.68;44.50;94485.16;1751358;81;21288;-57
2022/04/11 09:28:10;;;;;;;6.97;5.30;;;;;;;8.93;42.28;94491.95;1745639;80;20997;-55
2022/04/11 09:30:40;;;;;;;14.55;5.33;;;;;;;9.07;42.32;94487.38;1752413;80;21011;-54
2022/04/11 09:33:09;;;;;;;5.53;4.95;;;;;;;9.19;44.40;94493.41;1749767;79;21050;-56
2022/04/11 09:35:49;;;;;;;8.45;3.90;;;;;;;9.39;43.60;94487.02;1741200;80;21200;-55
2022/04/11 09:38:20;;;;;;;8.80;4.37;;;;;;;9.66;41.69;94485.88;1743136;80;21057;-58
2022/04/11 09:40:54;;;;;;;13.78;6.15;;;;;;;9.73;41.26;94474.63;1750380;80;21034;-56
2022/04/11 09:43:27;;;;;;;6.92;5.70;;;;;;;9.69;42.71;94481.64;1757066;79;21079;-55
2022/04/11 09:45:56;;;;;;;5.05;4.35;;;;;;;9.70;42.13;94484.54;1749391;79;21103;-60
2022/04/11 09:48:28;;;;;;;16.77;6.72;;;;;;;9.69;39.86;94483.02;1760041;79;21287;-54
2022/04/11 09:50:56;;;;;;;7.95;4.03;;;;;;;9.66;40.69;94480.38;1726752;81;21205;-56
2022/04/11 09:53:33;;;;;;;7.47;3.87;;;;;;;9.85;40.45;94483.41;1761376;79;21047;-55
2022/04/11 09:56:06;;;;;;;4.37;3.58;;;;;;;10.26;42.40;94484.42;1757257;79;21061;-55
2022/04/11 09:58:36;;;;;;;8.95;2.80;;;;;;;10.59;38.50;94475.27;1754323;81;21005;-59
2022/04/11 10:01:05;;;;;;;3.90;2.87;;;;;;;10.76;38.65;94472.42;1755879;79;21096;-53
2022/04/11 10:03:32;;;;;;;7.05;4.97;;;;;;;10.77;38.93;94479.45;1742962;79;21518;-57
2022/04/11 10:05:59;;;;;;;30.68;9.05;;;;;;;10.65;38.40;94485.05;1746961;80;21046;-55
2022/04/11 10:08:27;;;;;;;7.25;5.10;;;;;;;10.58;37.65;94484.74;1736426;81;21686;-55
2022/04/11 10:10:56;;;;;;;18.98;5.65;;;;;;;10.44;37.49;94479.79;1742922;80;20977;-53
2022/04/11 10:13:25;;;;;;;8.18;4.28;;;;;;;10.56;38.12;94469.90;1758682;81;21908;-53
2022/04/11 10:15:54;;;;;;;30.15;4.78;;;;;;;10.60;37.88;94474.05;1759335;80;21510;-54
2022/04/11 10:18:27;;;;;;;7.12;3.60;;;;;;;10.65;37.47;94474.05;1786541;78;20991;-53
2022/04/11 10:21:03;;;;;;;6.50;3.27;;;;;;;10.49;36.69;94475.06;1768120;79;21050;-54
2022/04/11 10:24:06;;;;;;;10.28;3.92;;;;;;;10.29;36.54;94484.30;1772951;78;21019;-54
2022/04/11 10:26:55;;;;;;;10.72;6.00;;;;;;;10.05;37.82;94479.14;1784765;79;21798;-55
2022/04/11 10:29:36;;;;;;;8.03;6.25;;;;;;;10.10;39.75;94476.40;1782169;79;21065;-53
2022/04/11 10:32:12;;;;;;;8.08;6.05;;;;;;;10.16;38.73;94479.49;1784360;78;20998;-55
2022/04/11 10:35:09;;;;;;;6.62;5.12;;;;;;;10.13;39.71;94487.89;1716347;81;21032;-57
2022/04/11 10:37:45;;;;;;;10.35;7.78;;;;;;;10.10;38.88;94483.27;1769469;79;21059;-57
2022/04/11 10:40:24;;;;;;;8.05;6.58;;;;;;;10.12;39.65;94489.08;1750869;79;21117;-56
2022/04/11 10:43:08;;;;;;;10.75;5.10;;;;;;;10.23;41.42;94494.95;1747197;80;21112;-55
2022/04/11 10:45:46;;;;;;;7.78;6.03;;;;;;;10.24;39.33;94489.02;1746333;80;20998;-58
2022/04/11 10:48:24;;;;;;;7.12;5.40;;;;;;;10.16;40.04;94492.48;1745254;79;21005;-56
2022/04/11 10:50:56;;;;;;;6.60;4.08;;;;;;;10.21;39.62;94488.55;1741089;79;21056;-55
2022/04/11 10:53:28;;;;;;;8.10;3.37;;;;;;;10.69;39.53;94488.44;1766455;80;21140;-56
2022/04/11 10:56:07;;;;;;;9.43;4.22;;;;;;;11.55;38.25;94477.09;1783204;78;20997;-57
2022/04/11 10:58:57;;;;;;;12.05;6.00;;;;;;;12.36;36.69;94478.38;1752221;80;20986;-55
2022/04/11 11:01:59;;;;;;;12.23;4.60;;;;;;;13.00;36.39;94478.27;1751143;80;21025;-56
2022/04/11 11:04:28;;;;;;;;;;;;;;;13.72;36.82;94476.39;1746962;80;21002;-55
2022/04/11 11:07:30;;;;;;;12.50;3.08;;;;;;;14.65;35.76;94470.54;1742670;78;21179;-54
2022/04/11 11:10:07;;;;;;;8.28;3.30;;;;;;;15.05;34.46;94466.52;1776931;78;21062;-57
2022/04/11 11:12:36;;;;;;;9.95;6.03;;;;;;;15.14;33.25;94467.76;1738482;81;21027;-58
2022/04/11 11:15:27;;;;;;;4.87;3.12;;;;;;;14.95;33.78;94472.63;1750256;78;21505;-56
2022/04/11 11:17:58;;;;;;;7.42;2.77;;;;;;;14.51;34.52;94471.34;1780157;78;26612;-57
2022/04/11 11:20:33;;;;;;;7.67;3.50;;;;;;;13.92;35.09;94468.22;1752290;80;21096;-55
2022/04/11 11:23:16;;;;;;;13.58;4.67;;;;;;;13.48;35.19;94472.91;1755275;79;21448;-58
2022/04/11 11:25:48;;;;;;;6.45;4.90;;;;;;;12.94;34.98;94469.86;1727079;81;21021;-63
2022/04/11 11:28:21;;;;;;;3.47;3.10;;;;;;;12.21;35.96;94477.50;1734431;80;21078;-58
2022/04/11 11:30:51;;;;;;;8.30;2.92;;;;;;;12.33;35.39;94480.70;1738973;80;21061;-56
2022/04/11 11:33:19;;;;;;;29.10;6.60;;;;;;;12.73;35.96;94473.63;1765116;80;21214;-55
2022/04/11 11:35:51;;;;;;;11.50;5.37;;;;;;;13.26;38.28;94475.22;1772348;79;21109;-56
2022/04/11 11:38:30;;;;;;;17.27;5.47;;;;;;;13.67;38.33;94476.42;1774246;79;21032;-56
2022/04/11 11:41:03;;;;;;;13.62;4.00;;;;;;;13.92;36.83;94470.98;1723584;81;21058;-59